sensor_id;sensor_type;location;lat;lon;timestamp;temperature;humidity
45283;DHT22;31023;44.994;1.796;2022-09-28T00:03:39;13.30;99.90
45283;DHT22;31023;44.994;1.796;2022-09-28T00:06:05;13.40;99.90
45283;DHT22;31023;44.994;1.796;2022-09-28T00:08:32;13.40;99.90
45283;DHT22;31023;44.994;1.796;2022-09-28T00:10:59;13.40;99.90
45283;DHT22;31023;44.994;1.796;2022-09-28T00:13:25;13.40;99.90
45283;DHT22;31023;44.994;1.796;2022-09-28T00:16:00;13.40;99.90
45283;DHT22;31023;44.994;1.796;2022-09-28T00:18:26;13.40;99.90
45283;DHT22;31023;44.994;1.796;2022-09-28T00:21:01;13.50;99.90
45283;DHT22;31023;44.994;1.796;2022-09-28T00:23:27;13.50;99.90
45283;DHT22;31023;44.994;1.796;2022-09-28T00:25:53;13.50;99.90
45283;DHT22;31023;44.994;1.796;2022-09-28T00:28:18;13.50;99.90
45283;DHT22;31023;44.994;1.796;2022-09-28T00:30:44;13.60;99.90
45283;DHT22;31023;44.994;1.796;2022-09-28T00:33:10;13.60;99.90
45283;DHT22;31023;44.994;1.796;2022-09-28T00:35:35;13.50;99.90
45283;DHT22;31023;44.994;1.796;2022-09-28T00:38:01;13.60;99.90
45283;DHT22;31023;44.994;1.796;2022-09-28T00:40:28;13.60;99.90
45283;DHT22;31023;44.994;1.796;2022-09-28T00:42:53;13.60;99.90
45283;DHT22;31023;44.994;1.796;2022-09-28T00:45:20;13.60;99.90
45283;DHT22;31023;44.994;1.796;2022-09-28T00:47:47;13.70;99.90
45283;DHT22;31023;44.994;1.796;2022-09-28T00:55:20;13.70;99.90
45283;DHT22;31023;44.994;1.796;2022-09-28T00:57:48;13.70;99.90
45283;DHT22;31023;44.994;1.796;2022-09-28T01:00:14;13.70;99.90
45283;DHT22;31023;44.994;1.796;2022-09-28T01:02:40;13.70;99.90
45283;DHT22;31023;44.994;1.796;2022-09-28T01:05:06;13.70;99.90
45283;DHT22;31023;44.994;1.796;2022-09-28T01:07:34;13.80;99.90
45283;DHT22;31023;44.994;1.796;2022-09-28T01:10:00;13.80;99.90
45283;DHT22;31023;44.994;1.796;2022-09-28T01:12:25;13.80;99.90
45283;DHT22;31023;44.994;1.796;2022-09-28T01:14:51;13.80;99.90
45283;DHT22;31023;44.994;1.796;2022-09-28T01:17:43;13.80;99.90
45283;DHT22;31023;44.994;1.796;2022-09-28T01:22:35;13.80;99.90
45283;DHT22;31023;44.994;1.796;2022-09-28T01:27:53;13.80;99.90
45283;DHT22;31023;44.994;1.796;2022-09-28T01:30:23;13.80;99.90
45283;DHT22;31023;44.994;1.796;2022-09-28T01:32:57;13.80;99.90
45283;DHT22;31023;44.994;1.796;2022-09-28T01:40:19;13.80;99.90
45283;DHT22;31023;44.994;1.796;2022-09-28T01:42:46;13.90;99.90
45283;DHT22;31023;44.994;1.796;2022-09-28T01:45:15;13.80;99.90
45283;DHT22;31023;44.994;1.796;2022-09-28T01:47:42;13.90;99.90
45283;DHT22;31023;44.994;1.796;2022-09-28T01:50:10;13.90;99.90
45283;DHT22;31023;44.994;1.796;2022-09-28T01:52:39;13.90;99.90
45283;DHT22;31023;44.994;1.796;2022-09-28T01:55:40;13.90;99.90
45283;DHT22;31023;44.994;1.796;2022-09-28T02:00:27;13.90;99.90
45283;DHT22;31023;44.994;1.796;2022-09-28T02:05:20;13.90;99.90
45283;DHT22;31023;44.994;1.796;2022-09-28T02:07:50;14.00;99.90
45283;DHT22;31023;44.994;1.796;2022-09-28T02:10:20;13.90;99.90
45283;DHT22;31023;44.994;1.796;2022-09-28T02:12:47;14.00;99.90
45283;DHT22;31023;44.994;1.796;2022-09-28T02:15:19;13.90;99.90
45283;DHT22;31023;44.994;1.796;2022-09-28T02:17:45;14.00;99.90
45283;DHT22;31023;44.994;1.796;2022-09-28T02:20:10;13.90;99.90
45283;DHT22;31023;44.994;1.796;2022-09-28T02:22:43;13.90;99.90
45283;DHT22;31023;44.994;1.796;2022-09-28T02:25:18;13.90;99.90
45283;DHT22;31023;44.994;1.796;2022-09-28T02:27:58;13.90;99.90
45283;DHT22;31023;44.994;1.796;2022-09-28T02:30:24;13.90;99.90
45283;DHT22;31023;44.994;1.796;2022-09-28T02:32:51;14.00;99.90
45283;DHT22;31023;44.994;1.796;2022-09-28T02:35:18;14.00;99.90
45283;DHT22;31023;44.994;1.796;2022-09-28T02:37:44;14.00;99.90
45283;DHT22;31023;44.994;1.796;2022-09-28T02:40:13;14.00;99.90
45283;DHT22;31023;44.994;1.796;2022-09-28T02:43:02;14.00;99.90
45283;DHT22;31023;44.994;1.796;2022-09-28T02:45:28;14.00;99.90
45283;DHT22;31023;44.994;1.796;2022-09-28T02:48:11;14.00;99.90
45283;DHT22;31023;44.994;1.796;2022-09-28T02:50:49;14.00;99.90
45283;DHT22;31023;44.994;1.796;2022-09-28T02:53:41;14.00;99.90
45283;DHT22;31023;44.994;1.796;2022-09-28T02:58:47;14.00;99.90
45283;DHT22;31023;44.994;1.796;2022-09-28T03:01:40;13.90;99.90
45283;DHT22;31023;44.994;1.796;2022-09-28T03:04:12;13.90;99.90
45283;DHT22;31023;44.994;1.796;2022-09-28T03:06:45;13.90;99.90
45283;DHT22;31023;44.994;1.796;2022-09-28T03:11:38;13.90;99.90
45283;DHT22;31023;44.994;1.796;2022-09-28T03:14:07;13.80;99.90
45283;DHT22;31023;44.994;1.796;2022-09-28T03:16:33;13.90;99.90
45283;DHT22;31023;44.994;1.796;2022-09-28T03:18:59;13.80;99.90
45283;DHT22;31023;44.994;1.796;2022-09-28T03:21:24;13.80;99.90
45283;DHT22;31023;44.994;1.796;2022-09-28T03:23:50;13.80;99.90
45283;DHT22;31023;44.994;1.796;2022-09-28T03:26:15;13.80;99.90
45283;DHT22;31023;44.994;1.796;2022-09-28T03:28:41;13.80;99.90
45283;DHT22;31023;44.994;1.796;2022-09-28T03:31:06;13.80;99.90
45283;DHT22;31023;44.994;1.796;2022-09-28T03:33:32;13.80;99.90
45283;DHT22;31023;44.994;1.796;2022-09-28T03:35:57;13.80;99.90
45283;DHT22;31023;44.994;1.796;2022-09-28T03:38:23;13.80;99.90
45283;DHT22;31023;44.994;1.796;2022-09-28T03:40:52;13.80;99.90
45283;DHT22;31023;44.994;1.796;2022-09-28T03:43:18;13.80;99.90
45283;DHT22;31023;44.994;1.796;2022-09-28T03:45:50;13.80;99.90
45283;DHT22;31023;44.994;1.796;2022-09-28T03:48:15;13.80;99.90
45283;DHT22;31023;44.994;1.796;2022-09-28T03:50:41;13.80;99.90
45283;DHT22;31023;44.994;1.796;2022-09-28T03:53:06;13.80;99.90
45283;DHT22;31023;44.994;1.796;2022-09-28T03:55:32;13.80;99.90
45283;DHT22;31023;44.994;1.796;2022-09-28T03:57:57;13.80;99.90
45283;DHT22;31023;44.994;1.796;2022-09-28T04:00:23;13.80;99.90
45283;DHT22;31023;44.994;1.796;2022-09-28T04:02:48;13.80;99.90
45283;DHT22;31023;44.994;1.796;2022-09-28T04:05:14;13.80;99.90
45283;DHT22;31023;44.994;1.796;2022-09-28T04:07:40;13.80;99.90
45283;DHT22;31023;44.994;1.796;2022-09-28T04:10:05;13.70;99.90
45283;DHT22;31023;44.994;1.796;2022-09-28T04:12:31;13.70;99.90
45283;DHT22;31023;44.994;1.796;2022-09-28T04:14:56;13.70;99.90
45283;DHT22;31023;44.994;1.796;2022-09-28T04:17:22;13.70;99.90
45283;DHT22;31023;44.994;1.796;2022-09-28T04:19:47;13.70;99.90
45283;DHT22;31023;44.994;1.796;2022-09-28T04:22:13;13.70;99.90
45283;DHT22;31023;44.994;1.796;2022-09-28T04:24:39;13.70;99.90
45283;DHT22;31023;44.994;1.796;2022-09-28T04:27:07;13.70;99.90
45283;DHT22;31023;44.994;1.796;2022-09-28T04:29:51;13.70;99.90
45283;DHT22;31023;44.994;1.796;2022-09-28T04:32:17;13.60;99.90
45283;DHT22;31023;44.994;1.796;2022-09-28T04:34:43;13.60;99.90
45283;DHT22;31023;44.994;1.796;2022-09-28T04:37:08;13.60;99.90
45283;DHT22;31023;44.994;1.796;2022-09-28T04:39:34;13.60;99.90
45283;DHT22;31023;44.994;1.796;2022-09-28T04:41:59;13.60;99.90
45283;DHT22;31023;44.994;1.796;2022-09-28T04:44:25;13.50;99.90
45283;DHT22;31023;44.994;1.796;2022-09-28T04:46:50;13.50;99.90
45283;DHT22;31023;44.994;1.796;2022-09-28T04:49:16;13.60;99.90
45283;DHT22;31023;44.994;1.796;2022-09-28T04:51:42;13.50;99.90
45283;DHT22;31023;44.994;1.796;2022-09-28T04:54:07;13.50;99.90
45283;DHT22;31023;44.994;1.796;2022-09-28T04:56:33;13.50;99.90
45283;DHT22;31023;44.994;1.796;2022-09-28T04:58:58;13.50;99.90
45283;DHT22;31023;44.994;1.796;2022-09-28T05:01:23;13.60;99.90
45283;DHT22;31023;44.994;1.796;2022-09-28T05:03:49;13.50;99.90
45283;DHT22;31023;44.994;1.796;2022-09-28T05:06:15;13.50;99.90
45283;DHT22;31023;44.994;1.796;2022-09-28T05:08:41;13.50;99.90
45283;DHT22;31023;44.994;1.796;2022-09-28T05:11:08;13.40;99.90
45283;DHT22;31023;44.994;1.796;2022-09-28T05:13:38;13.50;99.90
45283;DHT22;31023;44.994;1.796;2022-09-28T05:16:06;13.50;99.90
45283;DHT22;31023;44.994;1.796;2022-09-28T05:18:32;13.50;99.90
45283;DHT22;31023;44.994;1.796;2022-09-28T05:20:57;13.50;99.90
45283;DHT22;31023;44.994;1.796;2022-09-28T05:23:23;13.50;99.90
45283;DHT22;31023;44.994;1.796;2022-09-28T05:25:48;13.50;99.90
45283;DHT22;31023;44.994;1.796;2022-09-28T05:28:18;13.50;99.90
45283;DHT22;31023;44.994;1.796;2022-09-28T05:30:44;13.50;99.90
45283;DHT22;31023;44.994;1.796;2022-09-28T05:33:10;13.50;99.90
45283;DHT22;31023;44.994;1.796;2022-09-28T05:35:35;13.50;99.90
45283;DHT22;31023;44.994;1.796;2022-09-28T05:38:02;13.50;99.90
45283;DHT22;31023;44.994;1.796;2022-09-28T05:40:27;13.50;99.90
45283;DHT22;31023;44.994;1.796;2022-09-28T05:42:57;13.60;99.90
45283;DHT22;31023;44.994;1.796;2022-09-28T05:45:22;13.50;99.90
45283;DHT22;31023;44.994;1.796;2022-09-28T05:47:48;13.50;99.90
45283;DHT22;31023;44.994;1.796;2022-09-28T05:50:13;13.40;99.90
45283;DHT22;31023;44.994;1.796;2022-09-28T05:52:40;13.50;99.90
45283;DHT22;31023;44.994;1.796;2022-09-28T05:55:06;13.40;99.90
45283;DHT22;31023;44.994;1.796;2022-09-28T05:57:31;13.50;99.90
45283;DHT22;31023;44.994;1.796;2022-09-28T05:59:57;13.40;99.90
45283;DHT22;31023;44.994;1.796;2022-09-28T06:02:22;13.40;99.90
45283;DHT22;31023;44.994;1.796;2022-09-28T06:04:48;13.50;99.90
45283;DHT22;31023;44.994;1.796;2022-09-28T06:07:18;13.50;99.90
45283;DHT22;31023;44.994;1.796;2022-09-28T06:09:45;13.40;99.90
45283;DHT22;31023;44.994;1.796;2022-09-28T06:12:10;13.40;99.90
45283;DHT22;31023;44.994;1.796;2022-09-28T06:14:36;13.40;99.90
45283;DHT22;31023;44.994;1.796;2022-09-28T06:17:01;13.40;99.90
45283;DHT22;31023;44.994;1.796;2022-09-28T06:19:27;13.50;99.90
45283;DHT22;31023;44.994;1.796;2022-09-28T06:21:52;13.50;99.90
45283;DHT22;31023;44.994;1.796;2022-09-28T06:24:18;13.50;99.90
45283;DHT22;31023;44.994;1.796;2022-09-28T06:26:43;13.50;99.90
45283;DHT22;31023;44.994;1.796;2022-09-28T06:29:09;13.50;99.90
45283;DHT22;31023;44.994;1.796;2022-09-28T06:31:34;13.50;99.90
45283;DHT22;31023;44.994;1.796;2022-09-28T06:34:00;13.50;99.90
45283;DHT22;31023;44.994;1.796;2022-09-28T06:36:29;13.60;99.90
45283;DHT22;31023;44.994;1.796;2022-09-28T06:38:58;13.60;99.90
45283;DHT22;31023;44.994;1.796;2022-09-28T06:41:23;13.60;99.90
45283;DHT22;31023;44.994;1.796;2022-09-28T06:43:49;13.60;99.90
45283;DHT22;31023;44.994;1.796;2022-09-28T06:46:14;13.50;99.90
45283;DHT22;31023;44.994;1.796;2022-09-28T06:48:40;13.50;99.90
45283;DHT22;31023;44.994;1.796;2022-09-28T06:51:05;13.60;99.90
45283;DHT22;31023;44.994;1.796;2022-09-28T06:53:31;13.50;99.90
45283;DHT22;31023;44.994;1.796;2022-09-28T06:55:57;13.50;99.90
45283;DHT22;31023;44.994;1.796;2022-09-28T06:58:22;13.60;99.90
45283;DHT22;31023;44.994;1.796;2022-09-28T07:00:51;13.60;99.90
45283;DHT22;31023;44.994;1.796;2022-09-28T07:03:20;13.50;99.90
45283;DHT22;31023;44.994;1.796;2022-09-28T07:05:50;13.60;99.90
45283;DHT22;31023;44.994;1.796;2022-09-28T07:08:18;13.50;99.90
45283;DHT22;31023;44.994;1.796;2022-09-28T07:10:45;13.50;99.90
45283;DHT22;31023;44.994;1.796;2022-09-28T07:13:11;13.60;99.90
45283;DHT22;31023;44.994;1.796;2022-09-28T07:15:37;13.60;99.90
45283;DHT22;31023;44.994;1.796;2022-09-28T07:18:05;13.50;99.90
45283;DHT22;31023;44.994;1.796;2022-09-28T07:20:31;13.60;99.90
45283;DHT22;31023;44.994;1.796;2022-09-28T07:23:00;13.60;99.90
45283;DHT22;31023;44.994;1.796;2022-09-28T07:25:26;13.60;99.90
45283;DHT22;31023;44.994;1.796;2022-09-28T07:27:54;13.70;99.90
45283;DHT22;31023;44.994;1.796;2022-09-28T07:30:21;13.70;99.90
45283;DHT22;31023;44.994;1.796;2022-09-28T07:32:47;13.70;99.90
45283;DHT22;31023;44.994;1.796;2022-09-28T07:35:13;13.80;99.90
45283;DHT22;31023;44.994;1.796;2022-09-28T07:37:38;13.80;99.90
45283;DHT22;31023;44.994;1.796;2022-09-28T07:40:05;13.80;99.90
45283;DHT22;31023;44.994;1.796;2022-09-28T07:42:49;13.70;99.90
45283;DHT22;31023;44.994;1.796;2022-09-28T07:45:15;13.60;99.90
45283;DHT22;31023;44.994;1.796;2022-09-28T07:47:41;13.60;99.90
45283;DHT22;31023;44.994;1.796;2022-09-28T07:50:06;13.70;99.90
45283;DHT22;31023;44.994;1.796;2022-09-28T07:52:32;13.60;99.90
45283;DHT22;31023;44.994;1.796;2022-09-28T07:55:00;13.50;99.90
45283;DHT22;31023;44.994;1.796;2022-09-28T07:57:26;13.50;99.90
45283;DHT22;31023;44.994;1.796;2022-09-28T07:59:52;13.70;99.90
45283;DHT22;31023;44.994;1.796;2022-09-28T08:02:20;15.60;99.90
45283;DHT22;31023;44.994;1.796;2022-09-28T08:04:46;14.90;99.90
45283;DHT22;31023;44.994;1.796;2022-09-28T08:07:12;14.80;99.90
45283;DHT22;31023;44.994;1.796;2022-09-28T08:09:40;14.60;99.90
45283;DHT22;31023;44.994;1.796;2022-09-28T08:12:06;14.50;99.90
45283;DHT22;31023;44.994;1.796;2022-09-28T08:14:32;14.30;99.90
45283;DHT22;31023;44.994;1.796;2022-09-28T08:17:02;14.40;99.90
45283;DHT22;31023;44.994;1.796;2022-09-28T08:19:27;14.70;99.90
45283;DHT22;31023;44.994;1.796;2022-09-28T08:22:16;14.60;99.90
45283;DHT22;31023;44.994;1.796;2022-09-28T08:24:42;14.50;99.90
45283;DHT22;31023;44.994;1.796;2022-09-28T08:27:08;14.40;99.90
45283;DHT22;31023;44.994;1.796;2022-09-28T08:29:34;14.30;99.90
45283;DHT22;31023;44.994;1.796;2022-09-28T08:32:00;14.20;99.90
45283;DHT22;31023;44.994;1.796;2022-09-28T08:34:26;14.30;99.90
45283;DHT22;31023;44.994;1.796;2022-09-28T08:36:54;14.30;99.90
45283;DHT22;31023;44.994;1.796;2022-09-28T08:39:21;14.30;99.90
45283;DHT22;31023;44.994;1.796;2022-09-28T08:42:07;14.30;99.90
45283;DHT22;31023;44.994;1.796;2022-09-28T08:44:50;14.30;99.90
45283;DHT22;31023;44.994;1.796;2022-09-28T08:47:34;14.40;99.90
45283;DHT22;31023;44.994;1.796;2022-09-28T08:50:23;14.40;99.90
45283;DHT22;31023;44.994;1.796;2022-09-28T08:52:52;14.30;99.90
45283;DHT22;31023;44.994;1.796;2022-09-28T08:55:26;14.50;99.90
45283;DHT22;31023;44.994;1.796;2022-09-28T08:58:39;14.60;99.90
45283;DHT22;31023;44.994;1.796;2022-09-28T09:00:46;15.10;99.90
45283;DHT22;31023;44.994;1.796;2022-09-28T09:03:14;15.10;99.90
45283;DHT22;31023;44.994;1.796;2022-09-28T09:06:03;14.80;99.90
45283;DHT22;31023;44.994;1.796;2022-09-28T09:16:39;14.80;99.90
45283;DHT22;31023;44.994;1.796;2022-09-28T09:26:46;14.90;99.90
45283;DHT22;31023;44.994;1.796;2022-09-28T09:31:54;15.50;99.90
45283;DHT22;31023;44.994;1.796;2022-09-28T09:34:28;15.30;99.90
45283;DHT22;31023;44.994;1.796;2022-09-28T09:39:41;15.40;99.90
45283;DHT22;31023;44.994;1.796;2022-09-28T09:42:13;15.50;99.90
45283;DHT22;31023;44.994;1.796;2022-09-28T09:47:30;15.20;99.90
45283;DHT22;31023;44.994;1.796;2022-09-28T09:49:59;15.40;99.90
45283;DHT22;31023;44.994;1.796;2022-09-28T09:52:36;15.20;99.90
45283;DHT22;31023;44.994;1.796;2022-09-28T09:55:15;15.60;99.90
45283;DHT22;31023;44.994;1.796;2022-09-28T09:57:44;15.90;99.90
45283;DHT22;31023;44.994;1.796;2022-09-28T10:00:15;15.90;99.90
45283;DHT22;31023;44.994;1.796;2022-09-28T10:02:42;15.80;99.90
45283;DHT22;31023;44.994;1.796;2022-09-28T10:10:23;16.40;99.90
45283;DHT22;31023;44.994;1.796;2022-09-28T10:12:50;16.40;99.90
45283;DHT22;31023;44.994;1.796;2022-09-28T10:15:18;16.00;99.90
45283;DHT22;31023;44.994;1.796;2022-09-28T10:17:45;15.70;99.90
45283;DHT22;31023;44.994;1.796;2022-09-28T10:20:11;15.50;99.90
45283;DHT22;31023;44.994;1.796;2022-09-28T10:22:37;15.90;99.90
45283;DHT22;31023;44.994;1.796;2022-09-28T10:25:04;15.80;99.90
45283;DHT22;31023;44.994;1.796;2022-09-28T10:27:31;15.40;99.90
45283;DHT22;31023;44.994;1.796;2022-09-28T10:30:08;15.50;99.90
45283;DHT22;31023;44.994;1.796;2022-09-28T10:32:37;15.30;99.90
45283;DHT22;31023;44.994;1.796;2022-09-28T10:40:28;15.30;99.90
45283;DHT22;31023;44.994;1.796;2022-09-28T10:43:04;15.50;99.90
45283;DHT22;31023;44.994;1.796;2022-09-28T10:45:32;16.30;99.90
45283;DHT22;31023;44.994;1.796;2022-09-28T10:47:59;16.40;99.90
45283;DHT22;31023;44.994;1.796;2022-09-28T10:50:26;17.00;99.90
45283;DHT22;31023;44.994;1.796;2022-09-28T10:52:52;17.00;99.90
45283;DHT22;31023;44.994;1.796;2022-09-28T10:57:46;17.00;99.90
45283;DHT22;31023;44.994;1.796;2022-09-28T11:02:56;16.50;99.90
45283;DHT22;31023;44.994;1.796;2022-09-28T11:05:23;16.60;99.90
45283;DHT22;31023;44.994;1.796;2022-09-28T11:07:52;16.60;99.90
45283;DHT22;31023;44.994;1.796;2022-09-28T11:10:23;16.50;99.90
45283;DHT22;31023;44.994;1.796;2022-09-28T11:12:52;16.20;99.90
45283;DHT22;31023;44.994;1.796;2022-09-28T11:15:19;15.90;99.90
45283;DHT22;31023;44.994;1.796;2022-09-28T11:17:45;15.70;99.90
45283;DHT22;31023;44.994;1.796;2022-09-28T11:22:49;15.50;99.90
45283;DHT22;31023;44.994;1.796;2022-09-28T11:27:41;15.90;99.90
45283;DHT22;31023;44.994;1.796;2022-09-28T11:30:20;16.30;99.90
45283;DHT22;31023;44.994;1.796;2022-09-28T11:32:46;16.70;99.90
45283;DHT22;31023;44.994;1.796;2022-09-28T11:35:24;16.90;99.90
45283;DHT22;31023;44.994;1.796;2022-09-28T11:38:14;17.00;99.90
45283;DHT22;31023;44.994;1.796;2022-09-28T11:40:57;16.90;99.90
45283;DHT22;31023;44.994;1.796;2022-09-28T11:48:21;16.80;99.90
45283;DHT22;31023;44.994;1.796;2022-09-28T11:50:52;16.90;99.90
45283;DHT22;31023;44.994;1.796;2022-09-28T11:53:21;17.10;99.90
45283;DHT22;31023;44.994;1.796;2022-09-28T11:55:53;17.00;99.90
45283;DHT22;31023;44.994;1.796;2022-09-28T11:58:32;16.80;99.90
45283;DHT22;31023;44.994;1.796;2022-09-28T12:03:41;16.80;99.90
45283;DHT22;31023;44.994;1.796;2022-09-28T12:06:13;16.80;99.90
45283;DHT22;31023;44.994;1.796;2022-09-28T12:08:42;16.60;99.90
45283;DHT22;31023;44.994;1.796;2022-09-28T12:11:11;16.60;99.90
45283;DHT22;31023;44.994;1.796;2022-09-28T12:13:44;16.50;99.90
45283;DHT22;31023;44.994;1.796;2022-09-28T12:16:13;16.50;99.90
45283;DHT22;31023;44.994;1.796;2022-09-28T12:21:50;16.70;99.90
45283;DHT22;31023;44.994;1.796;2022-09-28T12:23:59;16.90;99.90
45283;DHT22;31023;44.994;1.796;2022-09-28T12:29:02;16.90;99.90
45283;DHT22;31023;44.994;1.796;2022-09-28T12:31:32;16.80;99.90
45283;DHT22;31023;44.994;1.796;2022-09-28T12:33:59;16.60;99.90
45283;DHT22;31023;44.994;1.796;2022-09-28T12:44:15;16.70;99.90
45283;DHT22;31023;44.994;1.796;2022-09-28T12:57:34;16.40;99.90
45283;DHT22;31023;44.994;1.796;2022-09-28T13:00:09;15.90;99.90
45283;DHT22;31023;44.994;1.796;2022-09-28T13:02:40;15.50;99.90
45283;DHT22;31023;44.994;1.796;2022-09-28T13:23:02;15.30;99.90
45283;DHT22;31023;44.994;1.796;2022-09-28T13:25:30;15.20;99.90
45283;DHT22;31023;44.994;1.796;2022-09-28T13:28:01;15.20;99.90
45283;DHT22;31023;44.994;1.796;2022-09-28T13:30:27;15.20;99.90
45283;DHT22;31023;44.994;1.796;2022-09-28T13:32:54;15.30;99.90
45283;DHT22;31023;44.994;1.796;2022-09-28T13:35:20;15.10;99.90
45283;DHT22;31023;44.994;1.796;2022-09-28T13:37:46;15.40;99.90
45283;DHT22;31023;44.994;1.796;2022-09-28T13:40:13;15.40;99.90
45283;DHT22;31023;44.994;1.796;2022-09-28T13:47:48;16.10;99.90
45283;DHT22;31023;44.994;1.796;2022-09-28T13:52:56;16.00;99.90
45283;DHT22;31023;44.994;1.796;2022-09-28T13:57:56;16.30;99.90
45283;DHT22;31023;44.994;1.796;2022-09-28T14:00:25;16.20;99.90
45283;DHT22;31023;44.994;1.796;2022-09-28T14:16:21;16.10;99.90
45283;DHT22;31023;44.994;1.796;2022-09-28T14:18:49;15.90;99.90
45283;DHT22;31023;44.994;1.796;2022-09-28T14:23:56;16.10;99.90
45283;DHT22;31023;44.994;1.796;2022-09-28T14:31:35;16.20;99.90
45283;DHT22;31023;44.994;1.796;2022-09-28T14:34:04;16.50;99.90
45283;DHT22;31023;44.994;1.796;2022-09-28T14:36:46;16.50;99.90
45283;DHT22;31023;44.994;1.796;2022-09-28T14:39:32;16.40;99.90
45283;DHT22;31023;44.994;1.796;2022-09-28T14:42:18;16.60;99.90
45283;DHT22;31023;44.994;1.796;2022-09-28T14:45:29;16.50;99.90
45283;DHT22;31023;44.994;1.796;2022-09-28T14:47:41;16.30;99.90
45283;DHT22;31023;44.994;1.796;2022-09-28T14:52:43;16.60;99.90
45283;DHT22;31023;44.994;1.796;2022-09-28T14:55:12;16.60;99.90
45283;DHT22;31023;44.994;1.796;2022-09-28T14:57:39;16.80;99.90
45283;DHT22;31023;44.994;1.796;2022-09-28T15:00:24;16.80;99.90
45283;DHT22;31023;44.994;1.796;2022-09-28T15:02:50;16.80;99.90
45283;DHT22;31023;44.994;1.796;2022-09-28T15:05:22;16.60;99.90
45283;DHT22;31023;44.994;1.796;2022-09-28T15:07:49;16.60;99.90
45283;DHT22;31023;44.994;1.796;2022-09-28T15:10:32;16.60;99.90
45283;DHT22;31023;44.994;1.796;2022-09-28T15:12:59;16.60;99.90
45283;DHT22;31023;44.994;1.796;2022-09-28T15:17:58;16.60;99.90
45283;DHT22;31023;44.994;1.796;2022-09-28T15:20:27;16.50;99.90
45283;DHT22;31023;44.994;1.796;2022-09-28T15:22:55;16.40;99.90
45283;DHT22;31023;44.994;1.796;2022-09-28T15:25:22;16.50;99.90
45283;DHT22;31023;44.994;1.796;2022-09-28T15:27:52;16.60;99.90
45283;DHT22;31023;44.994;1.796;2022-09-28T15:30:20;16.50;99.90
45283;DHT22;31023;44.994;1.796;2022-09-28T15:32:50;16.50;99.90
45283;DHT22;31023;44.994;1.796;2022-09-28T15:35:19;16.60;99.90
45283;DHT22;31023;44.994;1.796;2022-09-28T15:37:46;16.60;99.90
45283;DHT22;31023;44.994;1.796;2022-09-28T15:40:37;16.80;99.90
45283;DHT22;31023;44.994;1.796;2022-09-28T15:43:02;16.80;99.90
45283;DHT22;31023;44.994;1.796;2022-09-28T15:45:36;16.70;99.90
45283;DHT22;31023;44.994;1.796;2022-09-28T15:48:45;16.70;99.90
45283;DHT22;31023;44.994;1.796;2022-09-28T15:53:34;16.50;99.90
45283;DHT22;31023;44.994;1.796;2022-09-28T15:56:01;16.50;99.90
45283;DHT22;31023;44.994;1.796;2022-09-28T15:58:27;16.40;99.90
45283;DHT22;31023;44.994;1.796;2022-09-28T16:03:37;16.40;99.90
45283;DHT22;31023;44.994;1.796;2022-09-28T16:06:06;16.40;99.90
45283;DHT22;31023;44.994;1.796;2022-09-28T16:08:40;16.50;99.90
45283;DHT22;31023;44.994;1.796;2022-09-28T16:16:28;16.10;99.90
45283;DHT22;31023;44.994;1.796;2022-09-28T16:18:54;16.00;99.90
45283;DHT22;31023;44.994;1.796;2022-09-28T16:21:41;15.80;99.90
45283;DHT22;31023;44.994;1.796;2022-09-28T16:24:16;15.70;99.90
45283;DHT22;31023;44.994;1.796;2022-09-28T16:26:44;15.30;99.90
45283;DHT22;31023;44.994;1.796;2022-09-28T16:31:54;14.60;99.90
45283;DHT22;31023;44.994;1.796;2022-09-28T16:34:23;14.60;99.90
45283;DHT22;31023;44.994;1.796;2022-09-28T16:36:49;14.50;99.90
45283;DHT22;31023;44.994;1.796;2022-09-28T16:39:15;14.50;99.90
45283;DHT22;31023;44.994;1.796;2022-09-28T16:41:42;14.40;99.90
45283;DHT22;31023;44.994;1.796;2022-09-28T16:44:13;14.40;99.90
45283;DHT22;31023;44.994;1.796;2022-09-28T16:46:39;14.50;99.90
45283;DHT22;31023;44.994;1.796;2022-09-28T16:49:05;14.60;99.90
45283;DHT22;31023;44.994;1.796;2022-09-28T16:51:31;14.60;99.90
45283;DHT22;31023;44.994;1.796;2022-09-28T16:54:09;14.50;99.90
45283;DHT22;31023;44.994;1.796;2022-09-28T16:56:53;14.40;99.90
45283;DHT22;31023;44.994;1.796;2022-09-28T16:59:19;14.50;99.90
45283;DHT22;31023;44.994;1.796;2022-09-28T17:01:46;14.60;99.90
45283;DHT22;31023;44.994;1.796;2022-09-28T17:04:12;14.60;99.90
45283;DHT22;31023;44.994;1.796;2022-09-28T17:06:38;14.70;99.90
45283;DHT22;31023;44.994;1.796;2022-09-28T17:09:03;14.70;99.90
45283;DHT22;31023;44.994;1.796;2022-09-28T17:11:31;14.90;99.90
45283;DHT22;31023;44.994;1.796;2022-09-28T17:13:56;14.90;99.90
45283;DHT22;31023;44.994;1.796;2022-09-28T17:16:23;14.70;99.90
45283;DHT22;31023;44.994;1.796;2022-09-28T17:18:51;14.70;99.90
45283;DHT22;31023;44.994;1.796;2022-09-28T17:21:17;14.60;99.90
45283;DHT22;31023;44.994;1.796;2022-09-28T17:23:43;14.60;99.90
45283;DHT22;31023;44.994;1.796;2022-09-28T17:26:19;14.60;99.90
45283;DHT22;31023;44.994;1.796;2022-09-28T17:28:47;14.50;99.90
45283;DHT22;31023;44.994;1.796;2022-09-28T17:31:13;14.50;99.90
45283;DHT22;31023;44.994;1.796;2022-09-28T17:33:39;14.50;99.90
45283;DHT22;31023;44.994;1.796;2022-09-28T17:36:05;14.50;99.90
45283;DHT22;31023;44.994;1.796;2022-09-28T17:38:31;14.40;99.90
45283;DHT22;31023;44.994;1.796;2022-09-28T17:40:58;14.50;99.90
45283;DHT22;31023;44.994;1.796;2022-09-28T17:43:23;14.40;99.90
45283;DHT22;31023;44.994;1.796;2022-09-28T17:45:49;14.30;99.90
45283;DHT22;31023;44.994;1.796;2022-09-28T17:48:16;14.40;99.90
45283;DHT22;31023;44.994;1.796;2022-09-28T17:50:42;14.40;99.90
45283;DHT22;31023;44.994;1.796;2022-09-28T17:53:08;14.30;99.90
45283;DHT22;31023;44.994;1.796;2022-09-28T17:55:34;14.30;99.90
45283;DHT22;31023;44.994;1.796;2022-09-28T17:58:01;14.30;99.90
45283;DHT22;31023;44.994;1.796;2022-09-28T18:00:32;14.20;99.90
45283;DHT22;31023;44.994;1.796;2022-09-28T18:02:58;14.20;99.90
45283;DHT22;31023;44.994;1.796;2022-09-28T18:05:24;14.20;99.90
45283;DHT22;31023;44.994;1.796;2022-09-28T18:07:50;14.00;99.90
45283;DHT22;31023;44.994;1.796;2022-09-28T18:10:22;14.10;99.90
45283;DHT22;31023;44.994;1.796;2022-09-28T18:12:48;14.10;99.90
45283;DHT22;31023;44.994;1.796;2022-09-28T18:15:14;14.10;99.90
45283;DHT22;31023;44.994;1.796;2022-09-28T18:17:40;14.10;99.90
45283;DHT22;31023;44.994;1.796;2022-09-28T18:20:07;14.10;99.90
45283;DHT22;31023;44.994;1.796;2022-09-28T18:22:33;14.00;99.90
45283;DHT22;31023;44.994;1.796;2022-09-28T18:24:58;14.00;99.90
45283;DHT22;31023;44.994;1.796;2022-09-28T18:27:24;13.80;99.90
45283;DHT22;31023;44.994;1.796;2022-09-28T18:29:51;13.80;99.90
45283;DHT22;31023;44.994;1.796;2022-09-28T18:32:17;13.80;99.90